Time;durP1;ratioP1;P1;durP2;ratioP2;P2;SDS_P1;SDS_P2;PMS_P1;PMS_P2;Temp;Humidity;BMP_temperature;BMP_pressure;BME280_temperature;BME280_humidity;BME280_pressure;Samples;Min_cycle;Max_cycle;Signal;HPM_P1;HPM_P2
2021/07/09 00:02:37;;;;;;;5.20;3.83;;;;;;;20.89;89.54;99750.03;5176578;27;20379;-53
2021/07/09 00:05:03;;;;;;;5.18;3.70;;;;;;;20.68;91.13;99747.03;5175997;27;20403;-53
2021/07/09 00:07:29;;;;;;;8.07;3.70;;;;;;;20.52;91.84;99747.22;5175653;27;20316;-54
2021/07/09 00:09:55;;;;;;;6.20;4.32;;;;;;;20.33;92.42;99746.72;5175800;27;20046;-53
2021/07/09 00:12:21;;;;;;;5.70;3.60;;;;;;;20.27;92.88;99738.19;5175609;27;20100;-53
2021/07/09 00:14:46;;;;;;;4.15;3.33;;;;;;;20.29;92.98;99754.03;5175529;27;20042;-54
2021/07/09 00:17:12;;;;;;;5.53;4.30;;;;;;;20.25;92.74;99750.75;5174882;27;20117;-54
2021/07/09 00:19:38;;;;;;;6.15;4.35;;;;;;;20.19;92.51;99737.84;5174574;27;20051;-54
2021/07/09 00:22:04;;;;;;;10.68;4.57;;;;;;;20.15;92.58;99727.50;5175661;27;20042;-53
2021/07/09 00:24:30;;;;;;;5.65;4.40;;;;;;;20.14;92.28;99731.13;5174452;27;20038;-53
2021/07/09 00:26:56;;;;;;;5.93;4.22;;;;;;;20.08;92.19;99727.03;5175535;27;20324;-53
2021/07/09 00:29:22;;;;;;;7.05;4.00;;;;;;;20.04;92.33;99714.91;5175492;27;20103;-54
2021/07/09 00:31:48;;;;;;;6.47;4.97;;;;;;;19.95;92.00;99718.16;5175389;27;20416;-54
2021/07/09 00:34:15;;;;;;;8.32;5.13;;;;;;;19.87;92.36;99721.34;5175385;27;20142;-53
2021/07/09 00:36:41;;;;;;;5.20;3.92;;;;;;;19.89;92.61;99713.25;5175644;27;20125;-53
2021/07/09 00:39:07;;;;;;;7.65;4.15;;;;;;;19.91;92.58;99706.88;5174990;27;20460;-54
2021/07/09 00:41:33;;;;;;;5.38;4.45;;;;;;;19.93;92.48;99699.69;5174360;27;20042;-54
2021/07/09 00:43:59;;;;;;;5.60;4.05;;;;;;;19.95;92.25;99694.25;5175461;27;20412;-53
2021/07/09 00:46:35;;;;;;;8.55;5.15;;;;;;;19.97;91.86;99693.19;5175147;27;20114;-54
2021/07/09 00:49:02;;;;;;;5.97;4.55;;;;;;;19.95;91.86;99692.44;5175136;27;20073;-54
2021/07/09 00:51:27;;;;;;;6.82;4.32;;;;;;;19.95;91.92;99683.63;5174656;27;20439;-53
2021/07/09 00:53:53;;;;;;;6.30;4.40;;;;;;;19.96;91.47;99672.91;5174998;27;20046;-53
2021/07/09 00:56:20;;;;;;;6.18;3.70;;;;;;;19.95;91.49;99670.34;5174997;27;20096;-54
2021/07/09 00:58:47;;;;;;;5.68;3.97;;;;;;;19.98;91.45;99667.47;5174636;27;20050;-53
2021/07/09 01:01:12;;;;;;;5.80;4.25;;;;;;;20.00;91.39;99676.22;5173569;27;20054;-53
2021/07/09 01:03:38;;;;;;;6.00;3.75;;;;;;;19.99;90.99;99669.19;5160583;27;20073;-54
2021/07/09 01:06:04;;;;;;;3.88;3.28;;;;;;;20.00;90.82;99676.22;5159731;27;20179;-54
2021/07/09 01:08:30;;;;;;;6.97;4.38;;;;;;;20.01;90.59;99660.16;5160802;27;20091;-53
2021/07/09 01:10:56;;;;;;;5.55;4.68;;;;;;;19.96;90.47;99645.47;5161058;27;20118;-53
2021/07/09 01:13:22;;;;;;;6.20;4.82;;;;;;;19.99;90.77;99646.13;5160665;27;20099;-53
2021/07/09 01:15:47;;;;;;;12.32;7.40;;;;;;;19.89;91.60;99644.16;5159813;27;20046;-54
2021/07/09 01:18:13;;;;;;;31.13;7.15;;;;;;;19.89;92.07;99641.50;5160630;27;20070;-54
2021/07/09 01:20:39;;;;;;;18.92;6.38;;;;;;;19.92;91.89;99636.84;5159637;27;20453;-54
2021/07/09 01:23:04;;;;;;;19.63;6.65;;;;;;;19.95;92.21;99627.81;5160296;27;20080;-53
2021/07/09 01:25:30;;;;;;;35.63;7.35;;;;;;;19.96;92.25;99622.41;5159626;27;20076;-54
2021/07/09 01:28:06;;;;;;;21.70;7.00;;;;;;;19.98;91.91;99619.63;5160490;27;20057;-53
2021/07/09 01:30:33;;;;;;;27.80;6.65;;;;;;;19.98;92.23;99620.47;5160175;27;20348;-54
2021/07/09 01:32:58;;;;;;;16.27;5.75;;;;;;;19.96;92.24;99606.47;5160357;27;20061;-54
2021/07/09 01:35:25;;;;;;;22.83;7.28;;;;;;;20.02;91.94;99607.88;5160387;27;20388;-54
2021/07/09 01:37:55;;;;;;;27.38;7.38;;;;;;;20.02;92.40;99610.53;5161080;27;20047;-54
2021/07/09 01:40:20;;;;;;;12.73;5.00;;;;;;;20.05;92.15;99608.50;5141865;27;20431;-54
2021/07/09 01:42:46;;;;;;;18.30;5.85;;;;;;;20.07;92.08;99619.03;5159960;27;20049;-54
2021/07/09 01:45:12;;;;;;;22.98;7.38;;;;;;;20.08;92.30;99624.25;5159260;27;20058;-53
2021/07/09 01:47:39;;;;;;;9.18;6.00;;;;;;;20.13;92.00;99626.59;5160118;27;20127;-54
2021/07/09 01:50:05;;;;;;;18.63;5.78;;;;;;;20.17;91.79;99632.53;5159941;27;20061;-54
2021/07/09 01:52:31;;;;;;;8.93;5.18;;;;;;;20.17;91.45;99645.84;5159998;27;20076;-54
2021/07/09 01:54:59;;;;;;;30.20;6.10;;;;;;;20.19;91.48;99658.06;5159659;27;20050;-53
2021/07/09 01:57:28;;;;;;;36.30;6.82;;;;;;;20.15;92.15;99661.91;5159038;27;20054;-54
2021/07/09 01:59:56;;;;;;;19.50;6.43;;;;;;;20.17;91.96;99653.81;5158676;27;20111;-53
2021/07/09 02:02:22;;;;;;;45.30;7.18;;;;;;;20.10;92.79;99655.19;5159379;27;20054;-54
2021/07/09 02:04:50;;;;;;;51.20;7.97;;;;;;;20.11;92.78;99660.38;5160245;27;20130;-54
2021/07/09 02:07:16;;;;;;;45.22;6.82;;;;;;;20.18;92.93;99658.16;5159701;27;20042;-53
2021/07/09 02:09:46;;;;;;;68.15;6.45;;;;;;;20.26;92.61;99664.69;5159611;27;20046;-54
2021/07/09 02:12:13;;;;;;;31.98;6.93;;;;;;;20.23;92.46;99667.53;5158687;27;20131;-54
2021/07/09 02:14:39;;;;;;;16.15;5.82;;;;;;;20.22;92.49;99649.91;5158814;27;20042;-53
2021/07/09 02:17:07;;;;;;;21.13;5.32;;;;;;;20.26;92.18;99650.53;5159501;27;20053;-54
2021/07/09 02:19:33;;;;;;;10.63;4.72;;;;;;;20.25;92.19;99631.06;5159457;27;20348;-53
2021/07/09 02:22:00;;;;;;;35.60;6.70;;;;;;;20.22;91.87;99631.28;5159059;27;20043;-53
2021/07/09 02:24:26;;;;;;;20.40;5.60;;;;;;;20.22;92.00;99633.94;5158171;27;20447;-54
2021/07/09 02:26:51;;;;;;;8.77;4.90;;;;;;;20.23;91.62;99637.44;5159026;27;20050;-54
2021/07/09 02:29:18;;;;;;;21.88;5.88;;;;;;;20.25;91.68;99638.22;5158990;27;20050;-53
2021/07/09 02:31:43;;;;;;;8.45;6.35;;;;;;;20.25;91.47;99640.88;5159424;27;20053;-53
2021/07/09 02:34:09;;;;;;;8.48;6.25;;;;;;;20.28;91.24;99632.69;5159107;27;20039;-54
2021/07/09 02:36:35;;;;;;;13.55;8.32;;;;;;;20.29;91.69;99629.91;5159105;27;20042;-54
2021/07/09 02:39:01;;;;;;;8.82;6.88;;;;;;;20.26;91.57;99618.63;5158722;27;20046;-54
2021/07/09 02:41:26;;;;;;;10.50;7.25;;;;;;;20.27;91.30;99621.16;5159028;27;20053;-54
2021/07/09 02:43:52;;;;;;;11.70;7.95;;;;;;;20.27;91.48;99630.97;5158690;27;20042;-54
2021/07/09 02:46:18;;;;;;;12.23;7.63;;;;;;;20.26;91.07;99632.78;5159205;27;20048;-54
2021/07/09 02:48:44;;;;;;;10.57;8.18;;;;;;;20.24;91.43;99625.84;5158507;27;20050;-54
2021/07/09 02:51:10;;;;;;;10.77;8.98;;;;;;;20.05;92.42;99619.13;5140388;27;20168;-54
2021/07/09 02:53:35;;;;;;;17.73;9.75;;;;;;;20.14;92.42;99616.78;5158506;27;20446;-54
2021/07/09 02:56:01;;;;;;;12.95;8.43;;;;;;;20.04;92.64;99604.13;5158504;27;20039;-53
2021/07/09 02:58:27;;;;;;;10.40;8.60;;;;;;;20.07;92.83;99597.75;5157494;27;20141;-54
2021/07/09 03:00:53;;;;;;;11.02;9.40;;;;;;;20.02;93.15;99611.38;5158152;27;20047;-54
2021/07/09 03:03:18;;;;;;;10.85;7.68;;;;;;;20.08;93.27;99612.75;5123102;27;20057;-54
2021/07/09 03:05:44;;;;;;;13.73;7.88;;;;;;;20.08;93.42;99616.28;5158593;27;20053;-53
2021/07/09 03:08:10;;;;;;;14.60;8.35;;;;;;;20.05;93.97;99619.13;5158523;27;20038;-53
2021/07/09 03:10:36;;;;;;;15.48;8.90;;;;;;;20.13;93.46;99618.59;5157230;27;20042;-54
2021/07/09 03:13:02;;;;;;;15.38;9.70;;;;;;;20.15;93.48;99616.72;5157188;27;20053;-54
2021/07/09 03:15:28;;;;;;;12.23;8.10;;;;;;;20.18;93.36;99618.28;5157194;27;20512;-54
2021/07/09 03:17:53;;;;;;;13.10;8.40;;;;;;;20.23;92.91;99621.50;5158062;27;20046;-53
2021/07/09 03:20:19;;;;;;;12.00;9.30;;;;;;;20.26;92.90;99623.94;5157116;27;20042;-54
2021/07/09 03:22:45;;;;;;;10.65;8.30;;;;;;;20.25;92.84;99631.06;5158598;27;20038;-54
2021/07/09 03:25:12;;;;;;;9.20;7.40;;;;;;;20.31;93.12;99620.03;5158319;27;20091;-53
2021/07/09 03:27:38;;;;;;;14.70;7.95;;;;;;;20.39;92.84;99627.47;5158164;27;20054;-54
2021/07/09 03:30:05;;;;;;;10.13;7.65;;;;;;;20.42;92.14;99618.44;5139987;27;20042;-54
2021/07/09 03:32:31;;;;;;;16.80;11.13;;;;;;;20.42;92.00;99626.41;5157887;27;20034;-53
2021/07/09 03:34:57;;;;;;;14.02;10.15;;;;;;;20.46;92.38;99627.91;5158434;27;20039;-54
2021/07/09 03:37:23;;;;;;;14.93;10.65;;;;;;;20.49;92.06;99623.22;5157747;27;20054;-54
2021/07/09 03:39:48;;;;;;;10.30;8.63;;;;;;;20.58;91.92;99619.13;5157855;27;20043;-54
2021/07/09 03:42:15;;;;;;;13.02;9.35;;;;;;;20.63;91.92;99614.31;5157716;27;20359;-54
2021/07/09 03:44:40;;;;;;;13.48;9.60;;;;;;;20.67;91.36;99601.63;5158310;27;20039;-54
2021/07/09 03:47:06;;;;;;;16.25;9.68;;;;;;;20.71;91.26;99598.69;5157976;27;20051;-54
2021/07/09 03:49:32;;;;;;;15.50;9.20;;;;;;;20.77;91.02;99589.41;5157972;27;20050;-53
2021/07/09 03:51:58;;;;;;;14.35;8.18;;;;;;;20.74;91.04;99573.66;5157576;27;20321;-54
2021/07/09 03:54:23;;;;;;;10.45;7.88;;;;;;;20.84;90.98;99572.03;5157972;27;20038;-54
2021/07/09 03:56:49;;;;;;;10.82;7.55;;;;;;;20.95;91.07;99580.09;5157610;27;20039;-54
2021/07/09 03:59:15;;;;;;;9.15;6.78;;;;;;;21.10;90.75;99603.94;5157875;27;20123;-54
2021/07/09 04:01:41;;;;;;;9.70;6.65;;;;;;;21.20;90.29;99597.84;5157469;27;20051;-53
2021/07/09 04:04:06;;;;;;;9.85;7.07;;;;;;;21.31;89.82;99599.72;5157824;27;20529;-54
2021/07/09 04:06:32;;;;;;;19.02;7.63;;;;;;;21.31;89.54;99597.03;5139667;27;20424;-53
2021/07/09 04:08:58;;;;;;;14.15;8.85;;;;;;;21.36;89.32;99589.63;5157764;27;20054;-54
2021/07/09 04:11:24;;;;;;;9.00;7.00;;;;;;;21.34;88.91;99594.16;5157691;27;20084;-54
2021/07/09 04:13:50;;;;;;;6.93;5.88;;;;;;;21.47;89.09;99592.31;5157717;27;20401;-53
2021/07/09 04:16:15;;;;;;;11.55;5.85;;;;;;;21.64;89.29;99601.75;5157487;27;20035;-54
2021/07/09 04:18:41;;;;;;;12.52;6.88;;;;;;;21.66;88.02;99593.63;5157673;27;20449;-54
2021/07/09 04:21:07;;;;;;;10.82;7.43;;;;;;;21.71;87.88;99591.50;5157489;27;20057;-54
2021/07/09 04:23:32;;;;;;;14.10;6.60;;;;;;;21.75;87.49;99587.63;5157633;27;20102;-54
2021/07/09 04:25:58;;;;;;;16.15;9.02;;;;;;;21.84;87.69;99592.28;5157045;27;20113;-54
2021/07/09 04:28:24;;;;;;;13.73;7.00;;;;;;;21.94;87.21;99598.63;5157328;27;20095;-54
2021/07/09 04:30:50;;;;;;;12.90;6.18;;;;;;;22.01;86.70;99643.47;5157986;27;20055;-54
2021/07/09 04:56:08;;;;;;;11.27;5.72;;;;;;;21.46;83.69;99902.34;5176350;27;20395;-55
2021/07/09 04:58:33;;;;;;;11.65;5.10;;;;;;;21.17;84.50;99906.94;5176493;27;20427;-54
2021/07/09 05:00:59;;;;;;;17.73;5.93;;;;;;;20.96;86.06;99925.22;5176061;27;20057;-54
2021/07/09 05:03:25;;;;;;;12.77;6.68;;;;;;;20.71;87.49;99917.16;5175794;27;20180;-54
2021/07/09 05:05:51;;;;;;;10.00;4.68;;;;;;;20.59;88.22;99886.00;5176162;27;20046;-55
2021/07/09 05:08:16;;;;;;;9.02;4.45;;;;;;;20.47;89.61;99888.50;5175541;27;20043;-55
2021/07/09 05:10:42;;;;;;;9.45;3.40;;;;;;;20.42;89.98;99887.94;5175476;27;20046;-55
2021/07/09 05:13:09;;;;;;;5.40;3.60;;;;;;;20.40;90.64;99884.50;5175714;27;20106;-55
2021/07/09 05:15:34;;;;;;;6.60;2.90;;;;;;;20.39;90.81;99858.88;5175666;27;20309;-54
2021/07/09 05:18:00;;;;;;;5.43;2.08;;;;;;;20.40;90.63;99836.63;5175918;27;20057;-55
2021/07/09 05:20:26;;;;;;;3.60;2.38;;;;;;;20.38;91.16;99849.19;5175381;27;20046;-55
2021/07/09 05:22:52;;;;;;;2.67;2.05;;;;;;;20.41;91.59;99878.25;5175221;27;20451;-55
2021/07/09 05:25:18;;;;;;;2.50;1.83;;;;;;;20.51;91.46;99870.56;5175388;27;20053;-54
2021/07/09 05:27:44;;;;;;;3.28;1.65;;;;;;;20.62;91.34;99840.56;5175110;27;20053;-54
2021/07/09 05:30:10;;;;;;;2.63;1.58;;;;;;;20.75;91.22;99814.84;5175191;27;20049;-55
2021/07/09 05:32:36;;;;;;;4.65;2.20;;;;;;;20.98;92.40;99821.28;5175818;27;20054;-55
2021/07/09 05:35:02;;;;;;;1.33;1.15;;;;;;;21.53;93.62;99820.16;5174444;27;20098;-55
2021/07/09 05:37:28;;;;;;;3.03;1.80;;;;;;;21.81;91.48;99802.22;5175240;27;20042;-55
2021/07/09 05:39:54;;;;;;;3.95;1.38;;;;;;;21.84;89.67;99780.66;5175204;27;20133;-55
2021/07/09 05:42:20;;;;;;;1.90;0.77;;;;;;;21.94;88.79;99789.72;5175150;27;20054;-55
2021/07/09 05:44:46;;;;;;;3.15;1.08;;;;;;;22.03;88.77;99785.50;5174157;27;20450;-55
2021/07/09 05:47:12;;;;;;;3.45;1.02;;;;;;;22.15;88.13;99773.97;5175096;27;20099;-55
2021/07/09 05:49:38;;;;;;;1.48;0.43;;;;;;;22.16;86.46;99760.56;5174726;27;20462;-55
2021/07/09 06:03:54;;;;;;;1.52;0.60;;;;;;;22.54;80.85;99683.94;5134792;27;20390;-50
2021/07/09 06:06:20;;;;;;;0.75;0.40;;;;;;;22.29;81.99;99650.25;5134111;27;20054;-50
2021/07/09 06:08:45;;;;;;;1.95;0.20;;;;;;;22.27;82.75;99636.22;5134388;27;20051;-50
2021/07/09 06:11:11;;;;;;;0.75;0.22;;;;;;;22.24;83.41;99620.44;5116255;28;20112;-50
2021/07/09 06:13:37;;;;;;;1.00;0.38;;;;;;;22.23;82.72;99627.59;5133982;27;20455;-50
2021/07/09 06:16:04;;;;;;;0.45;0.30;;;;;;;22.22;83.37;99627.69;5133087;28;20047;-50
2021/07/09 06:18:29;;;;;;;0.40;0.30;;;;;;;22.35;83.96;99631.97;5134514;27;20047;-50
2021/07/09 06:20:55;;;;;;;2.00;0.40;;;;;;;22.85;84.65;99619.19;5115922;28;20058;-50
2021/07/09 06:23:21;;;;;;;0.63;0.20;;;;;;;23.18;82.32;99624.66;5134119;27;20047;-50
2021/07/09 06:25:47;;;;;;;3.97;0.40;;;;;;;23.15;82.04;99583.03;5134046;27;20435;-50
2021/07/09 06:28:13;;;;;;;0.73;0.20;;;;;;;23.78;81.49;99626.00;5133978;27;20043;-50
2021/07/09 06:30:38;;;;;;;1.10;0.40;;;;;;;24.06;80.08;99632.59;5133669;27;20062;-49
2021/07/09 06:33:07;;;;;;;0.40;0.30;;;;;;;24.14;77.31;99619.41;5133806;27;20076;-49
2021/07/09 06:35:33;;;;;;;2.45;0.25;;;;;;;24.11;77.09;99621.50;5133878;27;20047;-48
2021/07/09 06:37:59;;;;;;;1.30;0.25;;;;;;;24.08;76.68;99608.38;5134390;27;20069;-49
2021/07/09 06:40:25;;;;;;;0.47;0.30;;;;;;;24.08;76.38;99587.84;5133471;27;20047;-49
2021/07/09 06:42:55;;;;;;;0.98;0.50;;;;;;;23.91;75.96;99569.69;5133670;27;20044;-49
2021/07/09 06:45:20;;;;;;;1.02;0.60;;;;;;;23.64;76.17;99562.97;5133673;27;20043;-48
2021/07/09 06:47:46;;;;;;;0.57;0.30;;;;;;;23.80;78.40;99562.56;5115995;28;20108;-48
2021/07/09 06:50:13;;;;;;;0.75;0.32;;;;;;;23.93;77.17;99557.03;5133674;27;20052;-49
2021/07/09 06:52:41;;;;;;;0.45;0.45;;;;;;;23.76;76.52;99545.09;5133480;28;20078;-49
2021/07/09 06:55:07;;;;;;;0.70;0.50;;;;;;;23.60;77.66;99523.25;5134029;27;20043;-48
2021/07/09 06:57:33;;;;;;;0.50;0.50;;;;;;;23.52;77.06;99518.53;5132365;28;20050;-49
2021/07/09 06:59:58;;;;;;;1.02;0.57;;;;;;;23.70;77.91;99525.06;5133147;27;20063;-48
2021/07/09 07:02:24;;;;;;;4.95;0.85;;;;;;;23.79;76.86;99513.59;5133109;27;20079;-49
2021/07/09 07:04:50;;;;;;;0.93;0.63;;;;;;;24.19;76.91;99517.38;5118495;28;20043;-49
2021/07/09 07:07:16;;;;;;;4.10;1.30;;;;;;;24.38;74.80;99524.66;5119562;28;20058;-49
2021/07/09 07:09:42;;;;;;;0.77;0.77;;;;;;;24.77;74.66;99522.16;5119241;28;20047;-49
2021/07/09 07:12:08;;;;;;;0.68;0.47;;;;;;;25.01;73.02;99538.72;5119693;28;20035;-49
2021/07/09 07:14:34;;;;;;;1.23;0.60;;;;;;;24.78;72.14;99559.50;5119400;28;20108;-49
2021/07/09 07:17:01;;;;;;;1.30;0.60;;;;;;;24.83;73.40;99573.34;5101317;28;20107;-49
2021/07/09 07:19:27;;;;;;;0.57;0.40;;;;;;;24.76;72.38;99590.91;5119019;28;20051;-49
2021/07/09 07:21:53;;;;;;;0.57;0.25;;;;;;;24.70;72.63;99607.53;5119026;28;20053;-49
2021/07/09 07:24:19;;;;;;;0.30;0.30;;;;;;;24.66;73.25;99614.97;5118976;28;20052;-49
2021/07/09 07:26:45;;;;;;;0.73;0.52;;;;;;;24.71;73.15;99638.69;5119235;28;20391;-49
2021/07/09 07:29:11;;;;;;;0.50;0.30;;;;;;;24.75;72.96;99663.38;5083372;28;20040;-50
2021/07/09 07:31:37;;;;;;;0.98;0.60;;;;;;;24.94;73.02;99679.53;5118414;28;20047;-48
2021/07/09 07:34:03;;;;;;;0.82;0.52;;;;;;;25.31;73.18;99689.72;5118308;28;20047;-48
2021/07/09 07:36:29;;;;;;;1.15;0.40;;;;;;;25.66;71.01;99689.28;5117043;28;20486;-48
2021/07/09 07:38:54;;;;;;;1.15;0.50;;;;;;;25.74;70.45;99713.59;5118192;28;20070;-49
2021/07/09 07:41:20;;;;;;;1.33;0.80;;;;;;;25.85;70.56;99708.13;5118899;28;20055;-49
2021/07/09 07:43:46;;;;;;;0.52;0.28;;;;;;;25.96;70.59;99752.75;5118643;27;20421;-48
2021/07/09 07:46:13;;;;;;;0.45;0.45;;;;;;;25.97;69.57;99729.47;5118818;27;20043;-48
2021/07/09 07:48:39;;;;;;;0.73;0.43;;;;;;;25.73;68.57;99724.44;5118475;28;20074;-48
2021/07/09 07:51:04;;;;;;;2.28;0.75;;;;;;;25.61;69.24;99721.88;5118506;28;20040;-48
2021/07/09 07:53:34;;;;;;;1.00;0.50;;;;;;;25.66;69.33;99710.72;5118693;28;20044;-49
2021/07/09 07:56:01;;;;;;;1.00;0.77;;;;;;;25.70;70.08;99722.88;5117999;28;20043;-49
2021/07/09 07:58:27;;;;;;;0.40;0.40;;;;;;;25.66;70.36;99716.09;5118319;28;20058;-49
2021/07/09 08:00:53;;;;;;;1.35;0.77;;;;;;;25.64;70.51;99699.28;5117718;28;20060;-48
2021/07/09 08:03:19;;;;;;;0.68;0.57;;;;;;;25.37;70.16;99694.56;5118058;27;20051;-48
2021/07/09 08:05:45;;;;;;;1.02;0.60;;;;;;;25.39;70.97;99690.75;5118178;28;20048;-49
2021/07/09 08:08:10;;;;;;;1.33;0.70;;;;;;;25.49;71.51;99690.78;5118155;28;20048;-48
2021/07/09 08:10:36;;;;;;;0.95;0.63;;;;;;;25.40;71.33;99691.59;5117189;28;20062;-48
2021/07/09 08:13:02;;;;;;;0.60;0.50;;;;;;;25.59;71.71;99694.34;5119091;28;20043;-48
2021/07/09 08:15:28;;;;;;;2.92;0.43;;;;;;;25.70;71.56;99679.97;5117057;28;20067;-49
2021/07/09 08:17:54;;;;;;;2.25;0.57;;;;;;;25.93;71.38;99667.19;5117888;28;20134;-49
2021/07/09 08:20:20;;;;;;;0.73;0.52;;;;;;;26.14;70.40;99674.28;5118237;28;20050;-49
2021/07/09 08:22:45;;;;;;;0.70;0.47;;;;;;;26.45;69.19;99662.34;5117841;28;20329;-49
2021/07/09 08:25:12;;;;;;;1.40;0.52;;;;;;;26.66;68.10;99662.22;5118086;28;20043;-49
2021/07/09 08:27:41;;;;;;;0.68;0.63;;;;;;;26.71;66.91;99653.72;5118050;28;20126;-49
2021/07/09 08:30:07;;;;;;;1.27;0.47;;;;;;;26.68;67.48;99643.25;5117681;28;20047;-49
2021/07/09 08:32:33;;;;;;;1.15;0.98;;;;;;;26.54;66.08;99636.53;5116753;28;20052;-49
2021/07/09 08:34:59;;;;;;;1.75;0.90;;;;;;;26.48;67.07;99646.00;5117645;27;20036;-49
2021/07/09 08:37:25;;;;;;;1.35;0.60;;;;;;;26.52;67.29;99647.41;5117511;28;20052;-49
2021/07/09 08:39:51;;;;;;;0.95;0.75;;;;;;;26.50;67.16;99646.72;5117741;28;20051;-49
2021/07/09 08:42:17;;;;;;;1.63;1.20;;;;;;;26.33;65.95;99624.09;5116665;28;20066;-49
2021/07/09 08:44:43;;;;;;;3.08;1.58;;;;;;;26.22;66.59;99640.34;5117728;28;20429;-49
2021/07/09 08:47:09;;;;;;;2.75;1.00;;;;;;;26.23;67.27;99635.84;5117303;28;20044;-49
2021/07/09 08:49:35;;;;;;;2.65;1.60;;;;;;;25.96;67.55;99632.03;5117267;28;20047;-51
2021/07/09 08:52:00;;;;;;;1.65;1.20;;;;;;;25.85;67.65;99627.66;5117255;28;20133;-51
2021/07/09 08:54:26;;;;;;;2.08;1.70;;;;;;;25.74;67.10;99625.09;5117519;28;20051;-51
2021/07/09 08:56:52;;;;;;;3.17;1.58;;;;;;;25.54;67.71;99637.59;5117449;28;20432;-51
2021/07/09 08:59:19;;;;;;;4.05;1.92;;;;;;;25.56;68.82;99635.63;5082420;28;20093;-49
2021/07/09 09:01:52;;;;;;;3.20;1.70;;;;;;;25.59;68.86;99638.03;5117103;28;20039;-49
2021/07/09 09:04:25;;;;;;;1.65;1.55;;;;;;;25.64;68.90;99649.22;5117341;28;20047;-49
2021/07/09 09:07:01;;;;;;;3.00;1.30;;;;;;;25.64;70.06;99665.28;5116436;28;20048;-49
2021/07/09 09:09:27;;;;;;;2.30;1.75;;;;;;;25.63;70.28;99673.47;5117243;28;20413;-49
2021/07/09 09:12:03;;;;;;;2.50;1.65;;;;;;;25.68;69.94;99673.91;5117096;28;20054;-49
2021/07/09 09:14:28;;;;;;;2.22;1.95;;;;;;;25.65;70.18;99674.19;5116944;28;20039;-49
2021/07/09 09:16:54;;;;;;;2.97;1.90;;;;;;;25.70;69.79;99679.13;5116793;28;20463;-49
2021/07/09 09:19:21;;;;;;;2.10;1.90;;;;;;;25.83;70.25;99666.31;5116232;28;20062;-49
2021/07/09 09:21:47;;;;;;;1.80;1.58;;;;;;;25.99;70.71;99660.41;5116772;28;20043;-49
2021/07/09 09:24:26;;;;;;;2.22;1.60;;;;;;;26.16;70.42;99635.56;5117055;28;20056;-49
2021/07/09 09:26:55;;;;;;;3.65;2.28;;;;;;;26.24;70.41;99627.63;5100522;28;20085;-49
2021/07/09 09:29:24;;;;;;;4.20;2.13;;;;;;;26.25;70.42;99615.06;5115784;28;20120;-49
2021/07/09 09:31:50;;;;;;;3.33;2.28;;;;;;;26.23;70.04;99631.31;5116594;28;20043;-49
2021/07/09 09:34:16;;;;;;;5.07;1.65;;;;;;;26.26;70.25;99640.91;5115748;28;20054;-49
2021/07/09 09:36:57;;;;;;;3.70;2.58;;;;;;;26.19;68.47;99653.19;5116656;28;20340;-49
2021/07/09 09:39:22;;;;;;;3.33;2.35;;;;;;;26.17;69.62;99656.03;5116181;28;20070;-49
2021/07/09 09:42:09;;;;;;;2.83;2.20;;;;;;;26.37;68.60;99678.34;5116233;28;20318;-49
2021/07/09 09:44:35;;;;;;;2.78;1.75;;;;;;;26.52;69.64;99695.75;5116500;28;20058;-49
2021/07/09 09:47:20;;;;;;;2.65;2.45;;;;;;;26.64;68.32;99690.22;5116706;28;20051;-49
2021/07/09 09:49:51;;;;;;;2.20;2.00;;;;;;;26.78;68.60;99695.16;5116742;28;20063;-49
2021/07/09 09:52:32;;;;;;;3.30;2.03;;;;;;;26.77;67.26;99714.91;5116359;28;20460;-49
2021/07/09 09:54:57;;;;;;;2.03;1.90;;;;;;;26.70;67.50;99709.28;5116716;28;20048;-49
2021/07/09 09:57:23;;;;;;;2.38;1.75;;;;;;;26.77;67.38;99720.28;5116508;28;20079;-49
2021/07/09 09:59:51;;;;;;;2.40;2.20;;;;;;;26.73;67.11;99709.00;5116655;28;20441;-49
2021/07/09 10:02:16;;;;;;;2.58;2.38;;;;;;;26.56;67.48;99662.25;5115246;28;20445;-51
2021/07/09 10:04:42;;;;;;;3.75;2.75;;;;;;;26.47;68.96;99687.22;5098529;28;20128;-51
2021/07/09 10:07:08;;;;;;;3.42;2.63;;;;;;;26.43;69.89;99704.63;5116492;28;20047;-50
2021/07/09 10:09:34;;;;;;;2.67;2.20;;;;;;;26.46;71.10;99704.34;5116152;28;20055;-51
2021/07/09 10:12:03;;;;;;;2.47;2.28;;;;;;;26.54;71.01;99692.91;5115148;28;20056;-50
2021/07/09 10:14:29;;;;;;;3.42;2.45;;;;;;;26.59;71.48;99717.50;5115563;28;20043;-49
2021/07/09 10:17:00;;;;;;;2.50;2.25;;;;;;;26.70;71.49;99746.03;5116125;28;20058;-49
2021/07/09 10:19:43;;;;;;;2.95;1.88;;;;;;;26.76;71.89;99751.69;5116128;28;20048;-50
2021/07/09 10:22:10;;;;;;;3.92;2.42;;;;;;;26.88;72.01;99763.13;5115528;28;20061;-50
2021/07/09 10:24:41;;;;;;;3.97;2.42;;;;;;;26.99;71.05;99736.09;5116360;28;20047;-51
2021/07/09 10:27:06;;;;;;;6.15;3.20;;;;;;;26.96;69.10;99719.41;5115230;28;20035;-51
2021/07/09 10:29:34;;;;;;;4.68;2.72;;;;;;;26.94;70.17;99689.13;5115445;28;20360;-51
2021/07/09 10:32:04;;;;;;;3.95;2.92;;;;;;;26.91;70.01;99701.03;5115958;28;20039;-50
2021/07/09 10:34:34;;;;;;;2.72;2.30;;;;;;;26.91;70.19;99711.78;5116501;28;20340;-50
2021/07/09 10:37:02;;;;;;;4.00;2.60;;;;;;;26.89;70.30;99704.88;5116236;28;20094;-50
2021/07/09 10:39:50;;;;;;;7.75;3.20;;;;;;;26.89;69.88;99688.75;5117493;28;20452;-50
2021/07/09 10:42:40;;;;;;;3.78;2.30;;;;;;;26.76;70.27;99687.22;5120115;28;20044;-50
2021/07/09 10:45:19;;;;;;;2.47;2.28;;;;;;;26.73;70.81;99697.41;5120039;28;20043;-50
2021/07/09 10:47:52;;;;;;;4.25;2.17;;;;;;;26.76;70.13;99700.66;5119918;28;20051;-50
2021/07/09 10:50:19;;;;;;;3.08;2.15;;;;;;;26.84;70.29;99696.38;5119954;28;20093;-50
2021/07/09 10:52:52;;;;;;;3.08;2.65;;;;;;;26.94;68.09;99689.13;5119805;28;20350;-50
2021/07/09 10:55:27;;;;;;;5.32;2.70;;;;;;;27.11;67.26;99680.31;5118649;28;20146;-50
2021/07/09 10:58:08;;;;;;;4.07;2.45;;;;;;;27.36;67.71;99654.63;5119790;28;20058;-51
2021/07/09 11:00:55;;;;;;;3.80;2.23;;;;;;;27.57;67.56;99648.16;5119788;28;20051;-51
2021/07/09 11:03:27;;;;;;;2.83;2.58;;;;;;;27.77;65.45;99647.03;5119494;28;20294;-51
2021/07/09 11:05:54;;;;;;;5.10;2.72;;;;;;;27.93;63.51;99646.38;5119442;28;20044;-51
2021/07/09 11:08:32;;;;;;;3.33;2.55;;;;;;;28.06;62.67;99651.38;5101831;28;20116;-51
2021/07/09 11:11:01;;;;;;;3.83;2.83;;;;;;;28.00;59.84;99644.75;5119318;28;20425;-51
2021/07/09 11:13:44;;;;;;;2.70;2.47;;;;;;;28.15;59.98;99645.06;5118413;28;20046;-51
2021/07/09 11:16:38;;;;;;;2.00;1.90;;;;;;;28.23;60.12;99645.09;5119479;28;20048;-51
2021/07/09 11:19:14;;;;;;;2.35;2.15;;;;;;;28.28;59.58;99631.19;5119443;28;20143;-49
2021/07/09 11:21:40;;;;;;;2.38;2.17;;;;;;;28.37;59.84;99635.63;5102184;28;20048;-49
2021/07/09 11:24:09;;;;;;;2.28;2.08;;;;;;;28.43;59.70;99638.56;5119051;28;20050;-49
2021/07/09 11:26:41;;;;;;;3.33;2.45;;;;;;;28.49;58.45;99638.94;5119005;28;20043;-49
2021/07/09 11:29:39;;;;;;;;;;;;;;;28.25;58.49;99635.03;5119794;28;20378;-49
2021/07/09 11:32:13;;;;;;;1.95;1.80;;;;;;;28.42;57.66;99636.88;5085468;28;19919;-49
2021/07/09 11:34:59;;;;;;;2.88;2.28;;;;;;;28.45;57.26;99641.09;5119176;28;20146;-49
2021/07/09 11:37:25;;;;;;;4.15;1.98;;;;;;;28.57;58.25;99629.06;5118726;27;20047;-49
2021/07/09 11:39:53;;;;;;;3.78;2.35;;;;;;;28.65;58.40;99633.66;5118859;28;20337;-49
2021/07/09 11:42:26;;;;;;;2.60;2.40;;;;;;;28.68;58.50;99637.91;5118686;28;20054;-49
2021/07/09 11:44:53;;;;;;;3.03;2.67;;;;;;;28.53;58.23;99630.38;5118936;28;20146;-49
2021/07/09 11:47:21;;;;;;;4.70;2.10;;;;;;;28.50;58.87;99646.00;5118705;28;20074;-49
2021/07/09 11:49:50;;;;;;;3.17;2.67;;;;;;;28.46;58.02;99637.41;5118180;28;20130;-49
2021/07/09 11:52:23;;;;;;;2.35;2.15;;;;;;;28.42;58.18;99644.13;5118707;28;20040;-49
2021/07/09 11:54:50;;;;;;;2.50;2.30;;;;;;;28.36;58.48;99625.84;5117935;28;20060;-49
2021/07/09 11:57:18;;;;;;;3.05;2.22;;;;;;;28.51;58.33;99637.78;5118418;28;20135;-49
2021/07/09 11:59:44;;;;;;;3.42;2.83;;;;;;;28.57;57.39;99625.53;5118406;28;20058;-50
2021/07/09 12:02:12;;;;;;;3.08;2.45;;;;;;;28.53;56.98;99616.06;5118275;28;20064;-50
2021/07/09 12:04:45;;;;;;;4.03;2.50;;;;;;;28.51;56.68;99615.41;5117964;28;20067;-50
2021/07/09 12:07:17;;;;;;;8.38;2.97;;;;;;;28.49;57.93;99609.31;5117926;28;20055;-49
2021/07/09 12:09:44;;;;;;;6.10;2.78;;;;;;;28.43;57.18;99606.25;5118160;28;20040;-49